Time;durP1;ratioP1;P1;durP2;ratioP2;P2;SDS_P1;SDS_P2;PMS_P1;PMS_P2;Temp;Humidity;BMP_temperature;BMP_pressure;BME280_temperature;BME280_humidity;BME280_pressure;Samples;Min_cycle;Max_cycle;Signal;HPM_P1;HPM_P2
2021/07/11 00:01:10;;;;;;;4.53;3.20;;;;;;;17.48;69.13;99215.59;5034730;28;20229;-90
2021/07/11 00:03:37;;;;;;;4.27;2.90;;;;;;;17.48;69.42;99226.41;5033944;28;20310;-90
2021/07/11 00:06:04;;;;;;;5.00;2.90;;;;;;;17.39;69.36;99214.53;5034214;28;20234;-88
2021/07/11 00:08:31;;;;;;;3.57;2.80;;;;;;;17.37;69.31;99210.44;5035088;28;20260;-91
2021/07/11 00:10:58;;;;;;;4.60;3.10;;;;;;;17.31;69.44;99206.16;5034921;28;20222;-93
2021/07/11 00:13:25;;;;;;;7.93;3.33;;;;;;;17.20;69.41;99191.81;5035172;28;20645;-91
2021/07/11 00:15:52;;;;;;;3.70;3.40;;;;;;;17.30;69.35;99204.53;5035076;28;20230;-89
2021/07/11 00:18:19;;;;;;;7.27;3.20;;;;;;;17.20;69.16;99191.00;5018080;28;20232;-91
2021/07/11 00:20:46;;;;;;;4.83;3.80;;;;;;;17.15;69.28;99191.81;5034890;28;20684;-89
2021/07/11 00:23:13;;;;;;;5.43;4.07;;;;;;;17.20;69.14;99197.22;5035230;28;20664;-91
2021/07/11 00:25:40;;;;;;;4.73;3.60;;;;;;;17.13;69.27;99181.25;5068276;28;20649;-91
2021/07/11 00:28:07;;;;;;;6.33;3.63;;;;;;;17.10;69.36;99181.81;5051324;28;20230;-91
2021/07/11 00:30:34;;;;;;;5.60;4.23;;;;;;;17.09;69.63;99174.75;5034855;28;20317;-91
2021/07/11 00:33:01;;;;;;;5.73;4.00;;;;;;;17.02;69.20;99168.84;5051692;28;20313;-91
2021/07/11 00:35:28;;;;;;;4.30;3.90;;;;;;;17.01;69.27;99172.63;5034674;28;20252;-91
2021/07/11 00:37:55;;;;;;;4.10;3.67;;;;;;;16.94;69.46;99180.19;5034884;28;20300;-91
2021/07/11 00:40:23;;;;;;;6.43;3.90;;;;;;;17.04;69.34;99199.13;5034702;28;20230;-91
2021/07/11 00:42:51;;;;;;;5.37;4.07;;;;;;;17.00;69.49;99191.81;5034889;28;20222;-89
2021/07/11 00:45:18;;;;;;;5.10;3.77;;;;;;;17.00;69.07;99195.34;5034649;28;20507;-89
2021/07/11 00:47:48;;;;;;;4.27;3.87;;;;;;;16.95;69.39;99191.81;5034363;28;20529;-91
2021/07/11 00:50:17;;;;;;;4.07;3.77;;;;;;;16.97;69.90;99197.78;5034374;28;20229;-90
2021/07/11 00:52:49;;;;;;;7.00;3.97;;;;;;;16.81;70.62;99185.31;5051301;28;20226;-92
2021/07/11 00:55:23;;;;;;;4.60;4.20;;;;;;;16.84;70.99;99196.44;5034652;28;20538;-89
2021/07/11 00:57:50;;;;;;;4.03;3.73;;;;;;;16.78;70.90;99191.28;5034489;28;20226;-91
2021/07/11 01:00:21;;;;;;;4.63;4.20;;;;;;;16.76;70.96;99190.75;5034586;28;20230;-92
2021/07/11 01:03:11;;;;;;;5.20;3.90;;;;;;;16.75;70.75;99194.56;5036250;28;20226;-92
2021/07/11 01:05:45;;;;;;;5.50;4.03;;;;;;;16.65;70.62;99182.66;5034481;28;20226;-91
2021/07/11 01:08:18;;;;;;;5.17;4.07;;;;;;;16.72;70.71;99207.53;5034547;28;20234;-90
2021/07/11 01:10:52;;;;;;;4.83;4.33;;;;;;;16.66;70.38;99191.53;5034392;28;20229;-91
2021/07/11 01:13:21;;;;;;;4.20;3.90;;;;;;;16.66;70.22;99205.88;5051445;28;20265;-92
2021/07/11 01:15:53;;;;;;;4.67;4.13;;;;;;;16.62;70.58;99196.69;5035102;28;20261;-89
2021/07/11 01:18:22;;;;;;;5.30;4.00;;;;;;;16.52;70.52;99180.41;5033346;28;20618;-88
2021/07/11 01:20:53;;;;;;;6.23;4.20;;;;;;;16.64;70.62;99210.75;5034358;28;20226;-91
2021/07/11 01:23:53;;;;;;;4.20;3.80;;;;;;;16.67;70.61;99195.88;5068087;28;20230;-92
2021/07/11 01:26:21;;;;;;;5.43;4.20;;;;;;;16.65;70.87;99192.66;5050444;28;20253;-90
2021/07/11 01:28:49;;;;;;;5.60;4.00;;;;;;;16.58;70.81;99194.78;5035184;28;20572;-91
2021/07/11 01:31:20;;;;;;;5.30;4.00;;;;;;;16.59;70.97;99193.72;5055333;28;20234;-92
2021/07/11 01:33:48;;;;;;;4.47;4.13;;;;;;;16.49;70.99;99169.34;5037799;28;20226;-89
2021/07/11 01:36:17;;;;;;;4.60;4.20;;;;;;;16.53;71.16;99190.16;5037448;28;20233;-92
2021/07/11 01:38:48;;;;;;;5.43;4.10;;;;;;;16.59;70.84;99188.31;5037340;28;20236;-88
2021/07/11 01:41:16;;;;;;;5.30;4.37;;;;;;;16.58;71.17;99184.78;5053981;28;20661;-90
2021/07/11 01:43:45;;;;;;;4.50;4.10;;;;;;;16.52;71.10;99185.81;5037010;28;20226;-88
2021/07/11 01:46:15;;;;;;;4.40;3.87;;;;;;;16.53;71.00;99197.44;5036682;28;20230;-91
2021/07/11 01:48:43;;;;;;;7.83;4.03;;;;;;;16.49;71.26;99189.06;5036970;28;20226;-91
2021/07/11 01:51:10;;;;;;;4.13;3.73;;;;;;;16.58;71.12;99200.19;5037203;28;20245;-92
2021/07/11 01:53:46;;;;;;;4.40;4.00;;;;;;;16.54;71.03;99194.50;5053699;28;20234;-92
2021/07/11 01:56:13;;;;;;;3.97;3.67;;;;;;;16.51;70.77;99192.34;5036669;28;20583;-92
2021/07/11 01:58:42;;;;;;;5.67;3.93;;;;;;;16.48;71.06;99202.84;5037235;28;20240;-90
2021/07/11 02:01:14;;;;;;;4.57;4.17;;;;;;;16.44;71.15;99202.59;5037277;28;20667;-93
2021/07/11 02:03:42;;;;;;;6.17;3.70;;;;;;;16.43;71.26;99214.47;5053953;28;20250;-92
2021/07/11 02:06:10;;;;;;;4.30;3.67;;;;;;;16.45;71.17;99208.81;5036302;28;20226;-91
2021/07/11 02:08:43;;;;;;;4.67;4.27;;;;;;;16.45;71.17;99212.31;5037068;28;20517;-91
2021/07/11 02:11:22;;;;;;;3.93;3.60;;;;;;;16.42;71.54;99215.56;5036590;28;20233;-91
2021/07/11 02:14:04;;;;;;;4.53;3.70;;;;;;;16.37;71.56;99212.03;5036735;28;20233;-90
2021/07/11 02:16:52;;;;;;;4.37;4.07;;;;;;;16.33;71.81;99211.75;5052827;28;20252;-91
2021/07/11 02:19:33;;;;;;;4.03;3.70;;;;;;;16.38;71.75;99209.06;5038007;28;20309;-92
2021/07/11 02:22:02;;;;;;;5.83;3.60;;;;;;;16.54;71.90;99228.81;5036703;28;20269;-94
2021/07/11 02:24:36;;;;;;;4.17;3.83;;;;;;;16.56;71.72;99222.06;5020202;28;20230;-91
2021/07/11 02:27:05;;;;;;;4.27;3.87;;;;;;;16.66;71.30;99234.81;5053590;28;20566;-92
2021/07/11 02:29:37;;;;;;;4.80;3.90;;;;;;;16.69;71.11;99226.19;5036602;28;20613;-93
2021/07/11 02:32:08;;;;;;;4.80;4.03;;;;;;;16.78;71.01;99226.47;5035597;28;20250;-91
2021/07/11 02:34:36;;;;;;;4.37;3.97;;;;;;;16.81;70.99;99225.91;5036499;28;20281;-92
2021/07/11 02:37:05;;;;;;;4.53;4.13;;;;;;;16.83;70.81;99224.56;5053153;28;20238;-90
2021/07/11 02:39:35;;;;;;;6.87;4.03;;;;;;;16.77;70.58;99204.00;5069058;28;20543;-91
2021/07/11 02:42:07;;;;;;;4.30;3.87;;;;;;;16.86;70.48;99207.78;5034809;28;20660;-94
2021/07/11 02:44:35;;;;;;;4.17;3.73;;;;;;;16.87;70.73;99214.84;5036339;28;20238;-93
2021/07/11 02:47:15;;;;;;;7.03;4.10;;;;;;;16.82;70.80;99209.41;5069379;28;20719;-92
2021/07/11 02:49:50;;;;;;;6.00;3.87;;;;;;;16.75;70.72;99202.66;5037063;28;20503;-89
2021/07/11 02:52:20;;;;;;;4.27;3.80;;;;;;;16.76;71.11;99206.97;5052433;28;20574;-93
2021/07/11 02:54:59;;;;;;;4.37;3.90;;;;;;;16.72;71.19;99206.69;5036281;28;20230;-92
2021/07/11 02:57:28;;;;;;;4.97;3.90;;;;;;;16.61;71.52;99203.16;5036347;28;20230;-92
2021/07/11 02:59:59;;;;;;;5.43;4.20;;;;;;;16.63;71.79;99211.03;5019643;28;20226;-91
2021/07/11 03:02:29;;;;;;;4.23;3.83;;;;;;;16.55;71.84;99208.81;5035688;28;20621;-93
2021/07/11 03:04:57;;;;;;;4.63;4.23;;;;;;;16.56;71.85;99213.16;5035549;28;20237;-90
2021/07/11 03:07:25;;;;;;;5.27;4.27;;;;;;;16.50;71.81;99203.41;5036229;28;20313;-94
2021/07/11 03:09:52;;;;;;;4.17;3.87;;;;;;;16.51;71.75;99213.16;5035744;28;20222;-93
2021/07/11 03:12:23;;;;;;;4.50;3.97;;;;;;;16.50;71.65;99216.94;5035232;28;20230;-93
2021/07/11 03:14:51;;;;;;;4.70;3.80;;;;;;;16.50;71.79;99215.03;5035954;28;20238;-94
2021/07/11 03:17:23;;;;;;;4.40;3.70;;;;;;;16.47;71.67;99210.16;5035322;28;20229;-89
2021/07/11 03:19:52;;;;;;;4.97;3.93;;;;;;;16.52;71.63;99215.56;5035404;28;20226;-91
2021/07/11 03:22:25;;;;;;;4.03;3.70;;;;;;;16.59;71.65;99224.28;5051501;28;20230;-93
2021/07/11 03:24:56;;;;;;;5.73;4.00;;;;;;;16.63;71.34;99233.47;5051832;28;20276;-92
2021/07/11 03:27:27;;;;;;;4.20;3.83;;;;;;;16.68;71.19;99238.91;5035481;28;20292;-92
2021/07/11 03:30:01;;;;;;;5.70;4.10;;;;;;;16.74;70.88;99228.91;5035087;28;20272;-90
2021/07/11 03:32:38;;;;;;;4.23;3.83;;;;;;;16.81;70.92;99220.50;5034902;28;20225;-90
2021/07/11 03:35:06;;;;;;;4.47;4.10;;;;;;;16.84;70.98;99217.28;5034999;28;20233;-92
2021/07/11 03:37:36;;;;;;;4.23;3.60;;;;;;;16.96;70.33;99220.50;5035413;28;20219;-92
2021/07/11 03:40:06;;;;;;;4.03;3.73;;;;;;;17.08;69.72;99221.84;5051500;28;20300;-93
2021/07/11 03:42:37;;;;;;;4.50;4.10;;;;;;;17.20;69.70;99232.41;5035081;28;20305;-91
2021/07/11 03:45:06;;;;;;;4.30;3.70;;;;;;;17.32;69.16;99222.09;5035174;28;20258;-92
2021/07/11 03:47:41;;;;;;;4.57;3.77;;;;;;;17.44;68.48;99224.53;5034819;28;20230;-92
2021/07/11 03:50:10;;;;;;;5.17;4.00;;;;;;;17.49;68.68;99224.53;5034667;28;20237;-92
2021/07/11 03:52:50;;;;;;;4.33;3.93;;;;;;;17.62;68.42;99223.97;5034686;28;20313;-93
2021/07/11 03:55:17;;;;;;;3.90;3.50;;;;;;;17.80;68.45;99234.22;5051802;28;20762;-91
2021/07/11 03:57:46;;;;;;;3.97;3.60;;;;;;;17.94;67.99;99232.53;5051232;28;20313;-91
2021/07/11 04:00:17;;;;;;;3.83;3.53;;;;;;;18.04;68.10;99216.25;5034151;28;20226;-90
2021/07/11 04:02:49;;;;;;;6.40;3.73;;;;;;;18.18;67.60;99219.16;5051414;28;20227;-87
2021/07/11 04:05:20;;;;;;;8.00;3.77;;;;;;;18.27;66.58;99219.38;5064787;28;20313;-92
2021/07/11 04:07:49;;;;;;;4.87;3.40;;;;;;;18.28;66.14;99215.56;5037991;28;20232;-92
2021/07/11 04:10:16;;;;;;;3.70;3.40;;;;;;;18.36;66.11;99232.06;5037137;28;20301;-92
2021/07/11 04:12:43;;;;;;;5.00;3.43;;;;;;;18.37;66.18;99233.69;5038402;28;20233;-93
2021/07/11 04:15:10;;;;;;;4.10;3.70;;;;;;;18.31;66.18;99220.44;5054365;28;20240;-93
2021/07/11 04:17:38;;;;;;;4.80;3.53;;;;;;;18.47;65.44;99230.13;5021646;28;20294;-93
2021/07/11 04:20:06;;;;;;;3.83;3.50;;;;;;;18.58;65.40;99233.59;5021085;28;20241;-87
2021/07/11 04:22:34;;;;;;;4.13;3.73;;;;;;;18.64;65.10;99230.56;5037934;28;20228;-91
2021/07/11 04:25:01;;;;;;;7.27;4.07;;;;;;;18.81;64.47;99235.59;5037880;28;20696;-91
2021/07/11 04:27:28;;;;;;;3.97;3.60;;;;;;;19.18;63.74;99245.88;5037824;28;20222;-91
2021/07/11 04:29:56;;;;;;;4.03;3.73;;;;;;;19.36;63.04;99235.13;5053796;28;20238;-87
2021/07/11 04:32:22;;;;;;;3.67;3.37;;;;;;;19.54;62.27;99233.63;5054838;28;20268;-92
2021/07/11 04:34:49;;;;;;;4.30;3.50;;;;;;;19.67;61.75;99224.78;5054347;28;20655;-91
2021/07/11 04:37:16;;;;;;;3.50;3.20;;;;;;;19.75;61.41;99226.88;5038350;28;20715;-91
2021/07/11 04:39:43;;;;;;;4.00;3.10;;;;;;;19.96;61.02;99235.63;5038280;28;20240;-93
2021/07/11 04:42:11;;;;;;;3.70;3.40;;;;;;;20.15;60.22;99238.38;5037891;28;20321;-92
2021/07/11 04:44:40;;;;;;;4.33;3.20;;;;;;;20.37;59.28;99240.56;5038645;28;20636;-90
2021/07/11 04:47:07;;;;;;;3.80;3.20;;;;;;;20.51;59.35;99230.56;5021642;28;20259;-92
2021/07/11 04:49:34;;;;;;;3.30;3.10;;;;;;;20.56;59.06;99225.06;5038081;28;20288;-92
2021/07/11 04:52:03;;;;;;;3.40;3.20;;;;;;;20.85;58.63;99233.88;5037875;28;20509;-88
2021/07/11 04:54:29;;;;;;;3.50;3.20;;;;;;;21.02;59.02;99225.97;5038196;28;20222;-91
2021/07/11 04:56:56;;;;;;;4.50;3.17;;;;;;;21.09;58.79;99215.47;5038158;28;20234;-91
2021/07/11 04:59:23;;;;;;;4.70;3.60;;;;;;;21.30;58.32;99226.06;5071379;28;20666;-89
2021/07/11 05:01:50;;;;;;;6.10;3.30;;;;;;;21.41;57.87;99214.69;5054751;28;20229;-89
2021/07/11 05:04:16;;;;;;;3.80;3.40;;;;;;;21.38;58.94;99222.63;5072746;28;20316;-91
2021/07/11 05:06:43;;;;;;;3.60;3.27;;;;;;;21.49;58.81;99215.91;5059180;28;20226;-93
2021/07/11 05:09:10;;;;;;;4.30;3.30;;;;;;;21.64;57.85;99236.63;5041827;28;20233;-91
2021/07/11 05:11:37;;;;;;;3.90;3.20;;;;;;;21.64;57.53;99233.91;5025399;28;20224;-91
2021/07/11 05:14:04;;;;;;;3.40;3.10;;;;;;;21.94;57.20;99245.03;5058117;28;20238;-91
2021/07/11 05:16:32;;;;;;;3.27;2.97;;;;;;;22.04;56.47;99226.84;5042048;28;20228;-87
2021/07/11 05:18:59;;;;;;;3.50;3.10;;;;;;;22.29;56.21;99235.31;5041992;28;20277;-92
2021/07/11 05:21:25;;;;;;;3.53;3.23;;;;;;;22.45;55.49;99229.50;5042090;28;20315;-90
2021/07/11 05:23:52;;;;;;;3.53;3.30;;;;;;;22.56;54.84;99226.25;5041804;28;20226;-89
2021/07/11 05:26:19;;;;;;;4.23;3.63;;;;;;;22.52;54.15;99227.19;5057356;28;20260;-89
2021/07/11 05:28:46;;;;;;;4.33;3.60;;;;;;;22.60;54.60;99234.63;5057991;28;20311;-87
2021/07/11 05:31:13;;;;;;;3.72;3.28;;;;;;;22.74;54.33;99232.69;5057713;28;20571;-90
2021/07/11 05:33:40;;;;;;;3.70;3.33;;;;;;;22.83;53.00;99220.72;5058176;28;20333;-92
2021/07/11 05:36:08;;;;;;;2.97;2.73;;;;;;;23.15;52.83;99235.25;5041106;28;20627;-89
2021/07/11 05:38:36;;;;;;;3.60;3.33;;;;;;;23.13;51.98;99230.13;5041216;28;20315;-92
2021/07/11 05:41:03;;;;;;;3.58;3.25;;;;;;;22.85;53.10;99219.63;5058750;28;20236;-89
2021/07/11 05:43:31;;;;;;;4.10;3.33;;;;;;;23.00;53.17;99227.44;5041574;28;20602;-91
2021/07/11 05:45:58;;;;;;;5.67;3.60;;;;;;;22.86;54.05;99218.50;5041940;28;20211;-91
2021/07/11 05:48:25;;;;;;;4.10;3.30;;;;;;;22.87;53.94;99234.56;5041102;28;20267;-92
2021/07/11 05:50:52;;;;;;;3.63;3.33;;;;;;;22.63;54.69;99247.69;5041120;28;20277;-88
2021/07/11 05:53:19;;;;;;;4.43;3.47;;;;;;;22.58;55.36;99256.81;5041168;28;20314;-91
2021/07/11 05:55:46;;;;;;;3.37;3.10;;;;;;;22.51;55.92;99263.78;5041406;28;20235;-89
2021/07/11 05:58:13;;;;;;;3.83;3.47;;;;;;;22.53;55.93;99273.28;5074267;28;20555;-91
2021/07/11 06:00:42;;;;;;;3.40;2.70;;;;;;;22.49;55.45;99276.94;5040976;28;20315;-90
2021/07/11 06:03:10;;;;;;;3.37;3.10;;;;;;;22.50;54.93;99267.63;5058393;28;20235;-89
2021/07/11 06:05:37;;;;;;;4.77;3.33;;;;;;;22.60;54.74;99253.75;5024936;28;20235;-86
2021/07/11 06:08:05;;;;;;;4.93;2.97;;;;;;;22.73;54.53;99245.53;5024428;28;20232;-88
2021/07/11 06:10:32;;;;;;;3.40;3.10;;;;;;;22.94;54.38;99251.34;5074082;28;20251;-90
2021/07/11 06:12:59;;;;;;;3.23;2.93;;;;;;;23.06;53.74;99246.13;5024925;28;20231;-91
2021/07/11 06:15:26;;;;;;;4.57;2.88;;;;;;;23.19;53.76;99260.81;5040612;28;20228;-90
2021/07/11 06:17:53;;;;;;;3.22;3.03;;;;;;;23.43;52.51;99257.75;5057547;28;20639;-89
2021/07/11 06:20:22;;;;;;;2.75;2.50;;;;;;;;;;5056778;28;20965;-91
2021/07/11 06:22:49;;;;;;;3.50;2.53;;;;;;;23.82;52.51;99273.44;5057512;28;20514;-91
2021/07/11 06:25:17;;;;;;;3.35;2.70;;;;;;;23.79;52.01;99271.34;5041039;28;20593;-92
2021/07/11 06:27:44;;;;;;;2.80;2.60;;;;;;;24.06;51.08;99280.16;5040719;28;20233;-89
2021/07/11 06:30:16;;;;;;;3.03;2.72;;;;;;;24.13;51.20;99293.38;5040446;28;20248;-90
2021/07/11 06:32:44;;;;;;;3.20;2.80;;;;;;;23.51;52.16;99289.88;5057402;28;20225;-90
2021/07/11 06:35:13;;;;;;;2.97;2.70;;;;;;;23.59;52.36;99287.19;5040190;28;20504;-91
2021/07/11 06:37:41;;;;;;;2.50;2.30;;;;;;;23.74;52.03;99299.66;5056824;28;20253;-92
2021/07/11 06:40:09;;;;;;;4.15;2.50;;;;;;;23.91;52.00;99304.38;5056590;28;20248;-90
2021/07/11 06:42:37;;;;;;;3.08;2.17;;;;;;;24.01;51.69;99315.06;5040341;28;20239;-89
2021/07/11 06:45:04;;;;;;;3.22;2.67;;;;;;;24.04;51.33;99312.50;5040603;28;20233;-88
2021/07/11 06:47:32;;;;;;;2.42;2.20;;;;;;;24.11;51.16;99323.81;5039902;28;20229;-89
2021/07/11 06:50:00;;;;;;;2.65;2.45;;;;;;;24.12;51.49;99333.59;5073748;28;20246;-89
2021/07/11 06:52:26;;;;;;;3.78;2.40;;;;;;;24.16;52.09;99333.84;5056191;28;20229;-90
2021/07/11 06:54:54;;;;;;;2.47;2.13;;;;;;;24.12;52.08;99343.78;5056636;28;20716;-88
2021/07/11 06:57:20;;;;;;;2.63;2.25;;;;;;;24.08;51.88;99342.75;5023650;28;20633;-90
2021/07/11 06:59:47;;;;;;;4.43;2.35;;;;;;;24.06;51.91;99359.53;5039935;28;20230;-90
2021/07/11 07:02:14;;;;;;;2.67;2.47;;;;;;;23.88;52.82;99366.03;5039463;28;20249;-90
2021/07/11 07:04:41;;;;;;;2.60;2.40;;;;;;;23.64;53.66;99363.63;5056483;28;20233;-90
2021/07/11 07:07:08;;;;;;;2.60;2.10;;;;;;;23.50;53.85;99371.09;5040003;28;20263;-89
2021/07/11 07:09:35;;;;;;;3.03;2.53;;;;;;;23.42;54.89;99366.34;5056058;28;20244;-90
2021/07/11 07:12:02;;;;;;;3.30;2.65;;;;;;;23.35;56.08;99360.47;5056757;28;20229;-90
2021/07/11 07:14:29;;;;;;;2.72;2.33;;;;;;;23.28;56.12;99363.63;5056109;28;20232;-89
2021/07/11 07:16:55;;;;;;;4.45;2.63;;;;;;;23.55;54.21;99392.03;5072600;28;20237;-91
2021/07/11 07:19:22;;;;;;;3.20;2.60;;;;;;;23.73;53.52;99390.22;5072939;28;20230;-87
2021/07/11 07:21:49;;;;;;;2.92;2.60;;;;;;;23.81;52.89;99394.94;5039258;28;20232;-89
2021/07/11 07:24:16;;;;;;;2.97;2.60;;;;;;;24.02;52.77;99398.78;5039204;28;20256;-90
2021/07/11 07:26:43;;;;;;;2.63;2.42;;;;;;;24.18;52.09;99391.78;5038798;28;20636;-90
2021/07/11 07:29:10;;;;;;;2.85;2.60;;;;;;;24.27;52.29;99389.91;5022921;28;20316;-88
2021/07/11 07:31:37;;;;;;;2.63;2.42;;;;;;;24.53;50.78;99376.31;5055955;28;20695;-88
2021/07/11 07:34:04;;;;;;;3.17;2.40;;;;;;;24.86;50.53;99394.00;5022449;28;20312;-91
2021/07/11 07:36:32;;;;;;;2.47;2.30;;;;;;;25.23;49.35;99383.56;5039176;28;20221;-89
2021/07/11 07:38:59;;;;;;;2.95;2.33;;;;;;;25.39;47.53;99393.72;5037167;28;20213;-89
2021/07/11 07:41:26;;;;;;;2.75;2.20;;;;;;;25.81;46.94;99392.09;5056014;28;20228;-88
2021/07/11 07:43:53;;;;;;;2.60;2.10;;;;;;;25.98;46.86;99387.72;5038984;28;20233;-87
2021/07/11 07:46:20;;;;;;;2.53;2.33;;;;;;;26.38;45.39;99386.31;5038448;28;20229;-87
2021/07/11 07:48:47;;;;;;;2.35;1.88;;;;;;;26.54;44.87;99368.16;5035078;28;20254;-89
2021/07/11 07:51:14;;;;;;;2.25;2.05;;;;;;;26.36;45.52;99374.88;5052180;28;20318;-89
2021/07/11 07:53:41;;;;;;;3.88;2.22;;;;;;;26.88;44.59;99367.16;5035589;28;20641;-89
2021/07/11 07:56:08;;;;;;;2.33;2.13;;;;;;;26.88;43.64;99386.38;5054791;28;20239;-90
2021/07/11 07:58:35;;;;;;;2.10;2.00;;;;;;;27.26;42.85;99374.47;5055121;28;20231;-89
2021/07/11 08:01:02;;;;;;;2.70;2.13;;;;;;;27.42;42.48;99387.31;5050851;28;20221;-89
2021/07/11 08:03:28;;;;;;;2.63;1.98;;;;;;;27.76;42.53;99386.22;5035197;28;20227;-89
2021/07/11 08:05:55;;;;;;;2.28;1.95;;;;;;;27.92;41.54;99389.13;5035134;28;20697;-90
2021/07/11 08:08:22;;;;;;;2.83;2.15;;;;;;;28.05;41.66;99396.25;5034679;28;20237;-88
2021/07/11 08:10:49;;;;;;;2.10;2.00;;;;;;;28.16;40.87;99396.66;5035104;28;20248;-87
2021/07/11 08:13:16;;;;;;;4.20;1.90;;;;;;;28.26;40.64;99388.75;5051474;28;20233;-89
2021/07/11 08:15:42;;;;;;;2.30;2.08;;;;;;;28.29;40.23;99385.31;5051286;28;20234;-90
2021/07/11 08:18:09;;;;;;;2.33;2.00;;;;;;;28.43;41.03;99388.53;5018377;28;20234;-90
2021/07/11 08:20:36;;;;;;;2.63;2.10;;;;;;;28.40;40.82;99380.97;5034802;28;20520;-89
2021/07/11 08:23:03;;;;;;;2.72;2.40;;;;;;;28.25;40.57;99380.84;5034993;28;20245;-90
2021/07/11 08:25:30;;;;;;;4.40;2.38;;;;;;;28.15;41.47;99381.28;5002097;28;20312;-90
2021/07/11 08:27:57;;;;;;;2.13;2.00;;;;;;;28.00;41.71;99385.47;5049748;28;20229;-90
2021/07/11 08:30:23;;;;;;;2.40;2.20;;;;;;;27.76;41.92;99368.91;5035374;28;20250;-88
2021/07/11 08:32:50;;;;;;;2.30;2.10;;;;;;;27.80;41.87;99362.38;5040031;28;20231;-86
2021/07/11 08:35:17;;;;;;;3.08;2.30;;;;;;;27.80;42.15;99369.81;5038217;28;20308;-92
2021/07/11 08:37:44;;;;;;;3.75;2.10;;;;;;;27.56;42.60;99362.28;5071136;28;20662;-91
2021/07/11 08:40:12;;;;;;;2.63;2.42;;;;;;;27.45;42.50;99359.09;5054027;28;20321;-93
2021/07/11 08:42:40;;;;;;;2.58;2.38;;;;;;;27.31;43.86;99366.84;5054440;28;20597;-92
2021/07/11 08:45:08;;;;;;;3.03;2.78;;;;;;;27.23;44.07;99366.91;5037816;28;20233;-90
2021/07/11 08:47:37;;;;;;;3.08;2.88;;;;;;;27.29;43.60;99362.81;5054016;28;20297;-89
2021/07/11 08:50:06;;;;;;;2.85;2.65;;;;;;;27.59;42.67;99361.59;5037831;28;20875;-89
2021/07/11 08:52:35;;;;;;;2.90;2.70;;;;;;;27.68;42.44;99351.31;5071192;28;20229;-91
2021/07/11 08:55:28;;;;;;;3.15;2.85;;;;;;;28.10;41.11;99360.25;5021477;28;20669;-90
2021/07/11 08:58:00;;;;;;;3.10;2.55;;;;;;;27.91;40.31;99358.03;5068457;28;20225;-93
2021/07/11 09:00:35;;;;;;;2.92;2.72;;;;;;;28.22;39.70;99348.47;5051602;28;20221;-92
2021/07/11 09:03:03;;;;;;;5.03;2.70;;;;;;;28.28;39.47;99350.66;5018283;28;20248;-92
2021/07/11 09:05:39;;;;;;;2.88;2.58;;;;;;;28.39;39.10;99340.78;5035071;28;20250;-93
2021/07/11 09:08:24;;;;;;;2.78;2.58;;;;;;;28.40;38.74;99358.13;5018096;28;20226;-92
2021/07/11 09:10:56;;;;;;;2.72;2.40;;;;;;;28.39;39.34;99362.84;5019452;28;20539;-91
2021/07/11 09:13:26;;;;;;;2.50;2.30;;;;;;;28.09;39.86;99372.41;5026037;28;20226;-92
2021/07/11 09:15:55;;;;;;;2.78;2.42;;;;;;;27.94;39.85;99378.56;5051274;28;20519;-91
2021/07/11 09:18:28;;;;;;;2.50;2.30;;;;;;;27.80;40.17;99367.06;5051088;28;20226;-91
2021/07/11 09:21:00;;;;;;;3.00;2.60;;;;;;;27.69;40.52;99377.69;5050820;28;20236;-92
2021/07/11 09:23:29;;;;;;;2.65;2.30;;;;;;;27.75;40.51;99381.84;5054684;28;20252;-87
2021/07/11 09:26:03;;;;;;;2.90;2.70;;;;;;;27.68;40.89;99375.28;5055335;28;20230;-90
2021/07/11 09:28:31;;;;;;;2.67;2.47;;;;;;;27.51;41.83;99368.00;5051078;28;20329;-91
2021/07/11 09:31:12;;;;;;;5.82;2.83;;;;;;;27.45;42.13;99363.78;5050595;28;20247;-90
2021/07/11 09:33:44;;;;;;;15.15;13.57;;;;;;;27.47;43.14;99369.78;5050550;28;20253;-92
2021/07/11 09:36:16;;;;;;;6.97;6.25;;;;;;;27.51;44.07;99365.25;5050132;28;20546;-91
2021/07/11 09:38:55;;;;;;;6.75;6.10;;;;;;;27.54;43.35;99361.81;5043237;28;20221;-88
2021/07/11 09:41:25;;;;;;;7.55;6.80;;;;;;;27.53;43.43;99366.50;5030788;28;20328;-87
2021/07/11 09:43:54;;;;;;;4.72;3.30;;;;;;;27.47;43.17;99361.53;5026434;28;20257;-89
2021/07/11 09:46:23;;;;;;;4.20;3.90;;;;;;;27.27;45.12;99354.09;5068963;28;20242;-91
2021/07/11 09:48:52;;;;;;;5.78;5.05;;;;;;;27.19;46.66;99365.97;5070390;28;20229;-88
2021/07/11 09:51:27;;;;;;;2.67;2.47;;;;;;;27.13;45.25;99359.88;5040567;28;20229;-91
2021/07/11 09:54:06;;;;;;;3.50;3.28;;;;;;;26.93;46.18;99357.91;5057145;28;20256;-86
2021/07/11 09:56:44;;;;;;;13.15;10.90;;;;;;;26.69;47.47;99353.00;5040656;28;20225;-89
2021/07/11 09:59:13;;;;;;;6.05;5.45;;;;;;;26.67;47.92;99358.06;5040512;28;20284;-88
2021/07/11 10:01:42;;;;;;;3.38;3.17;;;;;;;26.64;47.82;99355.97;5036231;28;20599;-87
2021/07/11 10:04:10;;;;;;;3.40;3.17;;;;;;;26.58;48.37;99360.84;5043484;28;20237;-88
2021/07/11 10:06:38;;;;;;;2.60;2.40;;;;;;;26.51;48.17;99351.50;5018701;28;20321;-88
2021/07/11 10:09:08;;;;;;;3.42;2.67;;;;;;;26.43;48.50;99352.34;5007513;28;20527;-88
2021/07/11 10:11:36;;;;;;;4.50;4.15;;;;;;;26.33;49.04;99352.72;5036310;28;20541;-89
2021/07/11 10:14:03;;;;;;;4.10;3.80;;;;;;;26.25;49.24;99352.44;5072488;28;20282;-88
2021/07/11 10:16:30;;;;;;;3.17;2.88;;;;;;;26.19;49.73;99347.44;5056365;28;20231;-87
2021/07/11 10:19:00;;;;;;;3.47;2.80;;;;;;;25.97;49.52;99358.66;5022741;28;20233;-88
2021/07/11 10:21:29;;;;;;;2.80;2.60;;;;;;;25.82;49.15;99347.06;5072893;28;20315;-87
2021/07/11 10:23:57;;;;;;;3.13;2.78;;;;;;;25.81;49.18;99353.69;5056087;28;20229;-87
2021/07/11 10:26:35;;;;;;;5.28;4.80;;;;;;;25.78;49.49;99365.31;5038588;28;20308;-89
2021/07/11 10:29:19;;;;;;;8.25;7.45;;;;;;;25.72;50.27;99380.34;5055719;28;20262;-85
2021/07/11 10:31:49;;;;;;;8.82;7.93;;;;;;;25.60;50.13;99371.16;5038824;28;20232;-88
2021/07/11 10:34:31;;;;;;;7.00;6.40;;;;;;;25.57;51.19;99374.56;5039396;28;20232;-88
2021/07/11 10:37:10;;;;;;;3.80;3.50;;;;;;;25.43;51.96;99389.19;5040043;28;20636;-88
2021/07/11 10:39:37;;;;;;;3.75;3.35;;;;;;;25.24;52.80;99391.44;5039685;28;20234;-89
2021/07/11 10:42:04;;;;;;;3.85;3.55;;;;;;;25.14;54.63;99404.69;5072574;28;20223;-85
2021/07/11 10:44:30;;;;;;;5.60;4.55;;;;;;;24.89;54.38;99428.16;5055612;28;20229;-89
2021/07/11 10:46:59;;;;;;;3.90;3.60;;;;;;;24.82;56.46;99441.50;5037667;28;20228;-90
2021/07/11 10:49:30;;;;;;;4.80;3.40;;;;;;;24.72;56.13;99460.97;5052899;28;20226;-90
2021/07/11 10:52:04;;;;;;;3.53;3.22;;;;;;;24.67;56.60;99456.44;5053545;28;20710;-89
2021/07/11 10:54:37;;;;;;;5.20;3.20;;;;;;;24.34;58.79;99439.53;5052664;28;20630;-90
2021/07/11 10:57:04;;;;;;;4.20;3.80;;;;;;;24.28;60.96;99450.94;5036487;28;20233;-88
2021/07/11 10:59:42;;;;;;;5.10;4.15;;;;;;;23.90;62.71;99447.78;5036444;28;20310;-92
2021/07/11 11:02:22;;;;;;;5.63;4.55;;;;;;;23.65;64.37;99463.69;5051234;28;20287;-91
2021/07/11 11:05:25;;;;;;;5.22;4.70;;;;;;;23.64;63.84;99481.22;5053214;28;20260;-91
2021/07/11 11:08:11;;;;;;;5.65;5.03;;;;;;;23.38;64.10;99469.19;5013096;28;20235;-89
2021/07/11 11:10:40;;;;;;;5.93;5.43;;;;;;;23.36;64.84;99462.44;5052098;28;20224;-88
2021/07/11 11:13:17;;;;;;;6.10;5.50;;;;;;;23.27;64.94;99463.16;5052920;28;20536;-92
2021/07/11 11:15:52;;;;;;;7.68;6.65;;;;;;;23.13;66.39;99456.91;5046140;28;20225;-93
2021/07/11 11:18:38;;;;;;;7.50;6.82;;;;;;;23.11;67.10;99447.38;5037220;28;20253;-92
2021/07/11 11:21:11;;;;;;;7.10;6.40;;;;;;;22.98;67.73;99450.94;5066497;28;20232;-94
2021/07/11 11:23:46;;;;;;;7.13;6.53;;;;;;;23.08;68.39;99446.09;5052668;28;20264;-93
2021/07/11 11:26:19;;;;;;;6.68;6.00;;;;;;;23.17;67.80;99436.06;5053459;28;20298;-95
2021/07/11 11:28:46;;;;;;;7.07;6.38;;;;;;;23.24;67.26;99435.63;5035791;28;20255;-94
2021/07/11 11:31:14;;;;;;;7.35;6.40;;;;;;;23.23;68.43;99423.09;5039282;28;20248;-95
2021/07/11 11:33:52;;;;;;;6.95;6.30;;;;;;;23.17;69.63;99418.84;5040954;28;20229;-92
2021/07/11 11:36:21;;;;;;;6.63;6.00;;;;;;;23.27;69.62;99407.69;5034708;28;20225;-93
2021/07/11 11:38:49;;;;;;;6.90;6.40;;;;;;;23.25;70.02;99399.78;5037861;28;20218;-94
2021/07/11 11:41:18;;;;;;;6.97;6.47;;;;;;;23.34;68.03;99413.53;5057549;28;20213;-95
2021/07/11 11:43:48;;;;;;;6.97;6.38;;;;;;;23.67;65.09;99406.75;5058364;28;20675;-94
2021/07/11 11:46:36;;;;;;;7.57;6.90;;;;;;;24.03;64.91;99411.31;5051881;28;20275;-93